Flight Track Log - Related Links

Times and Time Zones

All times are in EDT time to prevent confusion due to time zone crossing. See the JBU514 flight status page for this flight to view local times or setup timezone preferences in your user account.

Time Position Orientation Groundspeed Altitude Reporting Facility
EDT Latitude Longitude Course Direction KTS MPH feet Rate Location/Type
Tue 01:34:53 PM 33.8069 -118.2369 49° Northeast 224 258 2,500  Level Los Angeles Center
Tue 01:35:55 PM 33.7450 -118.2828 212° Southwest 243 280 5,300 2,468 Climbing Los Angeles Center
Tue 01:36:00 PM 33.6926 -118.0130 18° North  Level FlightAware Approximate
Tue 01:36:57 PM 33.6728 -118.3044 194° South 265 305 7,600  Level Los Angeles Center
Tue 01:37:00 PM 33.8134 -117.9600 23° Northeast  Level FlightAware Approximate
Tue 01:38:00 PM 33.9297 -117.9037 40° Northeast  Level FlightAware Approximate
Tue 01:38:00 PM 33.6281 -118.2414 130° Southeast 267 307 9,900  Level Los Angeles Center
Tue 01:39:00 PM 34.0324 -117.8167 North  Level FlightAware Approximate
Tue 01:39:02 PM 33.6633 -118.1428 67° East 313 360 11,900  Level Los Angeles Center
Tue 01:40:00 PM 34.1273 -117.7125 49° Northeast  Level FlightAware Approximate
Tue 01:40:04 PM 33.7364 -118.0825 34° Northeast 322 371 13,800  Level Los Angeles Center
Tue 01:41:06 PM 33.8139 -118.0183 35° Northeast 337 388 14,900 1,161 Climbing Los Angeles Center
Tue 01:42:08 PM 33.9011 -117.9464 34° Northeast 376 433 16,200 968 Climbing Los Angeles Center
Tue 01:43:10 PM 33.9922 -117.8667 36° Northeast 402 463 16,900 1,161 Climbing Los Angeles Center
Tue 01:44:12 PM 34.1042 -117.7583 39° Northeast 429 494 18,600 1,113 Climbing Los Angeles Center
Tue 01:45:14 PM 34.1675 -117.6725 48° Northeast 431 496 19,200 1,008 Climbing Los Angeles Center
Tue 01:46:17 PM 34.2639 -117.5406 49° Northeast 436 502 20,700 1,200 Climbing Los Angeles Center
Tue 01:47:19 PM 34.3461 -117.4275 49° Northeast 446 513 21,700 1,016 Climbing Los Angeles Center
Tue 01:48:21 PM 34.4436 -117.3186 43° Northeast 456 525 22,800 1,016 Climbing Los Angeles Center
Tue 01:49:23 PM 34.5247 -117.2006 50° Northeast 459 528 23,800 968 Climbing Los Angeles Center
Tue 01:50:25 PM 34.6078 -117.0822 50° Northeast 463 533 24,800 919 Climbing Los Angeles Center
Tue 01:51:27 PM 34.7092 -116.9378 49° Northeast 471 542 25,700 726 Climbing Los Angeles Center
Tue 01:52:29 PM 34.7953 -116.8144 50° Northeast 479 551 26,300 624 Climbing Los Angeles Center
Tue 01:53:32 PM 34.8828 -116.6889 50° Northeast 488 562 27,000 624 Climbing Los Angeles Center
Tue 01:54:34 PM 34.9711 -116.5636 49° Northeast 489 563 27,600 629 Climbing Los Angeles Center
Tue 01:55:36 PM 35.0683 -116.4411 46° Northeast 499 574 28,300 726 Climbing Los Angeles Center
Tue 01:56:38 PM 35.1842 -116.2964 46° Northeast 500 575 29,100 823 Climbing Los Angeles Center
Tue 01:57:40 PM 35.2814 -116.1753 45° Northeast 500 575 30,000 774 Climbing Los Angeles Center
Tue 01:58:42 PM 35.3761 -116.0539 46° Northeast 496 571 30,700 480 Climbing Los Angeles Center
Tue 01:59:45 PM 35.4728 -115.9328 46° Northeast 497 572 31,000 144 Climbing Los Angeles Center
Tue 02:00:47 PM 35.5694 -115.8122 45° Northeast 497 572 31,000  Level Los Angeles Center
Tue 02:01:49 PM 35.6842 -115.6631 47° Northeast 500 575 31,000  Level Los Angeles Center
Tue 02:02:51 PM 35.7758 -115.5381 48° Northeast 497 572 31,000  Level Los Angeles Center
Tue 02:03:53 PM 35.8750 -115.4156 45° Northeast 501 577 31,000 44 Level Los Angeles Center
Tue 02:05:07 PM 35.9728 -115.2942 45° Northeast 501 577 31,100 438 Climbing Los Angeles Center
Tue 02:06:10 PM 36.0897 -115.1447 46° Northeast 491 565 32,000 768 Climbing Los Angeles Center
Tue 02:07:12 PM 36.1853 -115.0222 46° Northeast 496 571 32,700 484 Climbing Los Angeles Center
Tue 02:08:14 PM 36.2903 -114.8917 45° Northeast 497 572 33,000 145 Climbing Los Angeles Center
Tue 02:09:16 PM 36.3850 -114.7700 46° Northeast 492 566 33,000  Level Los Angeles Center
Tue 02:11:11 PM 36.5458 -114.4981 54° Northeast 489 563 33,000  Level Salt Lake Center
Tue 02:12:13 PM 36.6219 -114.3581 56° Northeast 489 563 33,000  Level Salt Lake Center
Tue 02:13:15 PM 36.6953 -114.2189 57° Northeast 485 558 33,000  Level Salt Lake Center
Tue 02:14:17 PM 36.7850 -114.0519 56° Northeast 484 557 33,000  Level Salt Lake Center
Tue 02:15:20 PM 36.8594 -113.9108 57° Northeast 487 560 33,000  Level Salt Lake Center
Tue 02:16:22 PM 36.9344 -113.7692 56° Northeast 488 562 33,000  Level Salt Lake Center
Tue 02:17:24 PM 37.0086 -113.6275 57° Northeast 489 563 33,000  Level Salt Lake Center
Tue 02:18:26 PM 37.0806 -113.4833 58° Northeast 490 564 33,000  Level Salt Lake Center
Tue 02:19:28 PM 37.1550 -113.3417 57° Northeast 490 564 33,000  Level Salt Lake Center
Tue 02:20:30 PM 37.2422 -113.1742 57° Northeast 485 558 33,000  Level Salt Lake Center
Tue 02:21:32 PM 37.3156 -113.0333 57° Northeast 484 557 33,000  Level Salt Lake Center
Tue 02:22:34 PM 37.3883 -112.8908 57° Northeast 487 560 33,000 48 Level Salt Lake Center
Tue 02:23:36 PM 37.4600 -112.7492 57° Northeast 489 563 33,100  Climbing Salt Lake Center
Tue 02:24:38 PM 37.5475 -112.5808 57° Northeast 490 564 33,000 -48 Descending Salt Lake Center
Tue 02:25:40 PM 37.6203 -112.4400 57° Northeast 488 562 33,000  Level Salt Lake Center
Tue 02:26:42 PM 37.6931 -112.2986 57° Northeast 486 559 33,000  Level Salt Lake Center
Tue 02:27:44 PM 37.7708 -112.1600 55° Northeast 485 558 33,000  Level Salt Lake Center
Tue 02:28:46 PM 37.8525 -112.0244 53° Northeast 486 559 33,000  Level Salt Lake Center
Tue 02:29:48 PM 37.9483 -111.8569 54° Northeast 490 564 33,000 48 Level Salt Lake Center
Tue 02:30:50 PM 38.0292 -111.7167 54° Northeast 493 567 33,100  Climbing Salt Lake Center
Tue 02:31:52 PM 38.1086 -111.5761 54° Northeast 492 566 33,000 -48 Descending Salt Lake Center
Tue 02:32:54 PM 38.1889 -111.4356 54° Northeast 492 566 33,000  Level Salt Lake Center
Tue 02:33:56 PM 38.2678 -111.2956 54° Northeast 489 563 33,000  Level Salt Lake Center
Tue 02:34:58 PM 38.3478 -111.1553 54° Northeast 490 564 33,000  Level Salt Lake Center
Tue 02:36:00 PM 38.4419 -110.9831 55° Northeast 494 568 33,000  Level Salt Lake Center
Tue 02:37:02 PM 38.5158 -110.8525 54° Northeast 493 567 33,000  Level Salt Lake Center
Tue 02:38:04 PM 38.6025 -110.6942 55° Northeast 488 562 33,000  Level Salt Lake Center
Tue 02:39:06 PM 38.6778 -110.5600 54° Northeast 485 558 33,000  Level Salt Lake Center
Tue 02:40:08 PM 38.7633 -110.4028 55° Northeast 482 555 33,000  Level Salt Lake Center
Tue 02:41:10 PM 38.8369 -110.2683 55° Northeast 482 555 33,000  Level Salt Lake Center
Tue 02:42:12 PM 38.9231 -110.1092 55° Northeast 485 558 33,000  Level Salt Lake Center
Tue 02:43:14 PM 38.9958 -109.9742 55° Northeast 482 555 33,000  Level Salt Lake Center
Tue 02:44:16 PM 39.0808 -109.8158 55° Northeast 482 555 33,000  Level Salt Lake Center
Tue 02:45:18 PM 39.1550 -109.6797 55° Northeast 484 557 33,000  Level Salt Lake Center
Tue 02:46:20 PM 39.2272 -109.5408 56° Northeast 487 560 33,000  Level Salt Lake Center
Tue 02:47:32 PM 39.3244 -109.3558 56° Northeast 485 558 33,000  Level Denver Center
Tue 02:48:24 PM 39.3864 -109.2431 55° Northeast 485 558 33,000  Level Salt Lake Center
Tue 02:49:26 PM 39.4703 -109.0817 56° Northeast 485 558 33,000  Level Salt Lake Center
Tue 02:50:27 PM 39.5419 -108.9456 56° Northeast 480 552 33,000  Level Salt Lake Center
Tue 02:51:29 PM 39.6161 -108.8031 56° Northeast 477 549 33,000  Level Salt Lake Center
Tue 02:52:31 PM 39.7058 -108.6317 56° Northeast 491 565 33,000  Level Salt Lake Center
Tue 02:53:33 PM 39.7778 -108.4933 56° Northeast 487 560 33,000  Level Salt Lake Center
Tue 02:54:35 PM 39.8606 -108.3308 56° Northeast 483 556 33,000  Level Salt Lake Center
Tue 02:55:37 PM 39.9314 -108.1919 56° Northeast 483 556 33,000  Level Salt Lake Center
Tue 02:56:39 PM 40.0025 -108.0531 56° Northeast 483 556 33,000  Level Salt Lake Center
Tue 02:57:41 PM 40.0825 -107.8900 57° Northeast 480 552 33,000  Level Salt Lake Center
Tue 02:58:53 PM 40.1564 -107.6900 64° Northeast 478 550 33,000  Level Denver Center
Tue 02:59:55 PM 40.2133 -107.5406 63° Northeast 478 550 33,000  Level Denver Center
Tue 03:00:57 PM 40.2703 -107.3919 63° Northeast 478 550 33,000  Level Denver Center
Tue 03:01:59 PM 40.3347 -107.2172 64° Northeast 478 550 33,000  Level Denver Center
Tue 03:03:01 PM 40.3906 -107.0675 64° Northeast 479 551 33,000  Level Denver Center
Tue 03:04:03 PM 40.4567 -106.8914 64° Northeast 481 554 33,000  Level Denver Center
Tue 03:05:05 PM 40.5081 -106.7528 64° Northeast 480 552 33,000  Level Denver Center
Tue 03:06:07 PM 40.5775 -106.5642 64° Northeast 477 549 33,000  Level Denver Center
Tue 03:07:09 PM 40.6297 -106.4167 65° Northeast 471 542 33,000  Level Denver Center
Tue 03:08:11 PM 40.6936 -106.2425 64° Northeast 472 543 33,000  Level Denver Center
Tue 03:09:13 PM 40.7472 -106.0919 65° Northeast 473 544 33,000 48 Level Denver Center
Tue 03:10:15 PM 40.8003 -105.9344 66° East 470 541 33,100  Climbing Denver Center
Tue 03:11:17 PM 40.8342 -105.7661 75° East 473 544 33,000 -48 Descending Denver Center
Tue 03:12:19 PM 40.8706 -105.5964 74° East 478 550 33,000  Level Denver Center
Tue 03:13:21 PM 40.9131 -105.3917 75° East 480 552 33,000  Level Denver Center
Tue 03:14:23 PM 40.9475 -105.2225 75° East 479 551 33,000  Level Denver Center
Tue 03:15:25 PM 40.9817 -105.0536 75° East 478 550 33,000  Level Denver Center
Tue 03:16:27 PM 41.0164 -104.8794 75° East 477 549 33,000  Level Denver Center
Tue 03:17:30 PM 41.0550 -104.6911 75° East 477 549 33,000  Level Denver Center
Tue 03:18:31 PM 41.0867 -104.5275 76° East 479 551 33,000  Level Denver Center
Tue 03:19:33 PM 41.1244 -104.3350 75° East 482 555 33,000  Level Denver Center
Tue 03:20:35 PM 41.1558 -104.1725 76° East 479 551 33,000  Level Denver Center
Tue 03:21:37 PM 41.1878 -104.0086 75° East 480 552 33,000  Level Denver Center
Tue 03:22:39 PM 41.2244 -103.8175 76° East 480 552 33,000  Level Denver Center
Tue 03:23:41 PM 41.2561 -103.6528 76° East 482 555 33,000  Level Denver Center
Tue 03:24:43 PM 41.2922 -103.4603 76° East 482 555 33,000  Level Denver Center
Tue 03:25:45 PM 41.3228 -103.2947 76° East 483 556 33,000  Level Denver Center
Tue 03:26:47 PM 41.3586 -103.1031 76° East 481 554 33,000  Level Denver Center
Tue 03:27:49 PM 41.3889 -102.9378 76° East 482 555 33,000  Level Denver Center
Tue 03:28:51 PM 41.4236 -102.7464 76° East 477 549 33,000  Level Denver Center
Tue 03:29:53 PM 41.4544 -102.5719 77° East 477 549 33,000  Level Denver Center
Tue 03:30:55 PM 41.4847 -102.4067 76° East 479 551 33,000  Level Denver Center
Tue 03:31:58 PM 41.5192 -102.2136 77° East 479 551 33,000  Level Denver Center
Tue 03:33:00 PM 41.5489 -102.0486 76° East 478 550 33,000  Level Denver Center
Tue 03:34:02 PM 41.5817 -101.8567 77° East 476 548 33,000  Level Denver Center
Tue 03:35:04 PM 41.6092 -101.6925 77° East 473 544 33,000  Level Denver Center
Tue 03:36:05 PM 41.6417 -101.4994 77° East 476 548 33,000  Level Denver Center
Tue 03:37:07 PM 41.6697 -101.3325 77° East 479 551 33,000  Level Denver Center
Tue 03:38:09 PM 41.7031 -101.1367 77° East 481 554 33,000  Level Denver Center
Tue 03:39:11 PM 41.7300 -100.9700 78° East 479 551 33,000  Level Denver Center
Tue 03:40:13 PM 41.7567 -100.8019 78° East 481 554 33,000  Level Denver Center
Tue 03:41:15 PM 41.7875 -100.6089 78° East 475 547 33,000  Level Denver Center
Tue 03:42:17 PM 41.8142 -100.4394 78° East 481 554 33,000  Level Denver Center
Tue 03:43:19 PM 41.8453 -100.2450 78° East 479 551 33,000  Level Denver Center
Tue 03:44:21 PM 41.8711 -100.0775 78° East 478 550 33,000  Level Denver Center
Tue 03:45:23 PM 41.9014 -99.8819 78° East 478 550 33,000  Level Denver Center
Tue 03:46:25 PM 41.9281 -99.7083 78° East 478 550 33,000  Level Denver Center
Tue 03:47:27 PM 41.9539 -99.5314 79° East 481 554 33,000  Level Denver Center
Tue 03:48:37 PM 41.9861 -99.3203 78° East 480 552 33,000  Level Minneapolis Center
Tue 03:49:39 PM 42.0131 -99.1433 78° East 482 555 33,000  Level Minneapolis Center
Tue 03:50:41 PM 42.0389 -98.9653 79° East 483 556 33,000  Level Minneapolis Center
Tue 03:51:43 PM 42.0644 -98.7858 79° East 486 559 33,000  Level Minneapolis Center
Tue 03:52:45 PM 42.0897 -98.6075 79° East 485 558 33,000  Level Minneapolis Center
Tue 03:53:47 PM 42.1142 -98.4278 80° East 487 560 33,000  Level Minneapolis Center
Tue 03:54:49 PM 42.1394 -98.2497 79° East 484 557 33,000  Level Minneapolis Center
Tue 03:55:51 PM 42.1681 -98.0350 80° East 484 557 33,000  Level Minneapolis Center
Tue 03:56:53 PM 42.1886 -97.8931 79° East 482 555 33,000  Level Minneapolis Center
Tue 03:57:55 PM 42.2175 -97.6756 80° East 486 559 33,000  Level Minneapolis Center
Tue 03:58:59 PM 42.2406 -97.4964 80° East 486 559 33,000  Level Minneapolis Center
Tue 04:00:01 PM 42.2636 -97.3178 80° East 485 558 33,000  Level Minneapolis Center
Tue 04:01:03 PM 42.2861 -97.1367 80° East 485 558 33,000  Level Minneapolis Center
Tue 04:02:05 PM 42.3147 -96.9178 80° East 489 563 33,000  Level Minneapolis Center
Tue 04:03:07 PM 42.3322 -96.7731 81° East 489 563 33,000  Level Minneapolis Center
Tue 04:04:10 PM 42.3600 -96.5539 80° East 491 565 33,000  Level Minneapolis Center
Tue 04:05:12 PM 42.3814 -96.3722 81° East 489 563 33,000  Level Minneapolis Center
Tue 04:06:14 PM 42.4033 -96.1903 81° East 489 563 33,000  Level Minneapolis Center
Tue 04:07:16 PM 42.4239 -96.0083 81° East 489 563 33,000  Level Minneapolis Center
Tue 04:08:18 PM 42.4458 -95.8261 81° East 490 564 33,000 339 Level Minneapolis Center
Tue 04:09:20 PM 42.4711 -95.6061 81° East 492 566 33,700 774 Climbing Minneapolis Center
Tue 04:10:22 PM 42.4922 -95.4200 81° East 497 572 34,600 629 Climbing Minneapolis Center
Tue 04:11:24 PM 42.5125 -95.2392 81° East 489 563 35,000 194 Climbing Minneapolis Center
Tue 04:12:26 PM 42.5317 -95.0567 82° East 488 562 35,000  Level Minneapolis Center
Tue 04:13:28 PM 42.5519 -94.8697 82° East 496 571 35,000  Level Minneapolis Center
Tue 04:14:30 PM 42.5708 -94.6864 82° East 493 567 35,000  Level Minneapolis Center
Tue 04:15:32 PM 42.5911 -94.4742 83° East 492 566 35,000  Level Minneapolis Center
Tue 04:17:38 PM 42.6108 -94.1042 86° East 501 577 35,000  Level Chicago Center
Tue 04:18:38 PM 42.6128 -93.9578 89° East 497 572 35,000  Level Minneapolis Center
Tue 04:19:41 PM 42.6153 -93.7353 89° East 496 571 35,000  Level Minneapolis Center
Tue 04:20:43 PM 42.6153 -93.5117 90° East 499 574 35,000  Level Minneapolis Center
Tue 04:21:45 PM 42.6164 -93.3244 89° East 501 577 35,000  Level Minneapolis Center
Tue 04:22:47 PM 42.6167 -93.1383 90° East 500 575 35,000  Level Minneapolis Center
Tue 04:23:51 PM 42.6153 -92.9511 91° East 499 574 35,000  Level Chicago Center
Tue 04:24:53 PM 42.6144 -92.7275 90° East 500 575 35,000  Level Chicago Center
Tue 04:25:55 PM 42.6139 -92.5419 90° East 497 572 35,000  Level Chicago Center
Tue 04:26:57 PM 42.6131 -92.3558 90° East 500 575 35,000  Level Chicago Center
Tue 04:27:59 PM 42.6117 -92.1697 91° East 500 575 35,000  Level Chicago Center
Tue 04:29:01 PM 42.6094 -91.9467 91° East 500 575 35,000  Level Chicago Center
Tue 04:30:03 PM 42.6064 -91.7633 91° East 498 573 35,000  Level Chicago Center
Tue 04:31:06 PM 42.6044 -91.5792 91° East 503 579 35,000  Level Chicago Center
Tue 04:32:08 PM 42.6028 -91.3958 91° East 500 575 35,000  Level Chicago Center
Tue 04:33:10 PM 42.5994 -91.1739 91° East 498 573 35,000  Level Chicago Center
Tue 04:34:12 PM 42.5964 -90.9867 91° East 502 578 35,000  Level Chicago Center
Tue 04:35:14 PM 42.5922 -90.8000 92° East 501 577 35,000  Level Chicago Center
Tue 04:36:16 PM 42.5892 -90.6150 91° East 496 571 35,000  Level Chicago Center
Tue 04:37:18 PM 42.5844 -90.3922 92° East 497 572 35,000  Level Chicago Center
Tue 04:38:20 PM 42.5797 -90.2092 92° East 493 567 35,000 -48 Level Chicago Center
Tue 04:39:22 PM 42.5742 -90.0267 92° East 491 565 34,900  Descending Chicago Center
Tue 04:40:24 PM 42.5692 -89.8411 92° East 495 570 35,000 97 Climbing Chicago Center
Tue 04:41:26 PM 42.5642 -89.6564 92° East 494 568 35,100  Climbing Chicago Center
Tue 04:42:28 PM 42.5564 -89.4344 93° East 495 570 35,000 -48 Descending Chicago Center
Tue 04:43:30 PM 42.5508 -89.2503 92° East 495 570 35,000  Level Chicago Center
Tue 04:44:32 PM 42.5442 -89.0667 93° East 491 565 35,000  Level Chicago Center
Tue 04:45:34 PM 42.5372 -88.8833 93° East 491 565 35,000  Level Chicago Center
Tue 04:46:36 PM 42.5308 -88.6969 93° East 493 567 35,000  Level Chicago Center
Tue 04:47:39 PM 42.5217 -88.4703 93° East 501 577 35,000  Level Chicago Center
Tue 04:48:41 PM 42.5139 -88.2825 93° East 501 577 35,000  Level Chicago Center
Tue 04:49:43 PM 42.5053 -88.0911 93° East 507 583 35,000  Level Chicago Center
Tue 04:50:45 PM 42.4989 -87.9011 93° East 507 583 35,000  Level Chicago Center
Tue 04:51:47 PM 42.4992 -87.7069 90° East 513 590 35,000  Level Chicago Center
Tue 04:52:49 PM 42.4986 -87.4744 90° East 515 593 35,000  Level Chicago Center
Tue 04:53:51 PM 42.4978 -87.2844 90° East 508 585 35,000  Level Chicago Center
Tue 04:54:53 PM 42.4961 -87.0950 91° East 504 580 35,000  Level Chicago Center
Tue 04:55:55 PM 42.4944 -86.9058 91° East 505 581 35,000  Level Chicago Center
Tue 04:56:57 PM 42.4925 -86.7167 91° East 505 581 35,000  Level Chicago Center
Tue 04:57:59 PM 42.4911 -86.5181 90° East 507 583 35,000  Level Chicago Center
Tue 04:59:01 PM 42.4872 -86.3275 92° East 511 588 35,000  Level Chicago Center
Tue 05:00:03 PM 42.4842 -86.1000 91° East 510 587 35,000  Level Chicago Center
Tue 05:01:06 PM 42.4806 -85.9097 91° East 510 587 35,000  Level Chicago Center
Tue 05:02:08 PM 42.4775 -85.7200 91° East 508 585 35,000  Level Chicago Center
Tue 05:03:11 PM 42.4744 -85.5292 91° East 511 588 35,000  Level Chicago Center
Tue 05:04:12 PM 42.4706 -85.3350 91° East 518 596 35,000  Level Chicago Center
Tue 05:05:14 PM 42.4650 -85.1058 92° East 513 590 35,000  Level Chicago Center
Tue 05:06:16 PM 42.4603 -84.9169 92° East 508 585 35,000  Level Chicago Center
Tue 05:07:18 PM 42.4558 -84.7256 92° East 509 586 35,000  Level Chicago Center
Tue 05:08:20 PM 42.4500 -84.5339 92° East 511 588 35,000  Level Chicago Center
Tue 05:09:15 PM 42.4419 -84.3567 93° East 511 588 35,000  Level Cleveland Center
Tue 05:10:15 PM 42.4356 -84.1675 93° East 511 588 35,000  Level Cleveland Center
Tue 05:11:15 PM 42.4289 -83.9758 93° East 511 588 35,000  Level Cleveland Center
Tue 05:12:15 PM 42.4239 -83.7842 92° East 506 582 35,000  Level Cleveland Center
Tue 05:13:15 PM 42.4186 -83.5928 92° East 506 582 35,000  Level Cleveland Center
Tue 05:14:15 PM 42.4053 -83.3811 95° East 512 589 35,000  Level Cleveland Center
Tue 05:15:15 PM 42.3994 -83.1814 92° East 517 595 35,000  Level Cleveland Center
Tue 05:16:15 PM 42.3914 -82.9842 93° East 522 601 35,000  Level Cleveland Center
Tue 05:17:15 PM 42.3806 -82.7925 94° East 517 595 35,000  Level Cleveland Center
Tue 05:18:15 PM 42.3736 -82.6011 93° East 517 595 35,000  Level Cleveland Center
Tue 05:19:15 PM 42.3644 -82.4042 94° East 517 595 35,000  Level Cleveland Center
Tue 05:20:15 PM 42.3569 -82.2072 93° East 517 595 35,000  Level Cleveland Center
Tue 05:21:15 PM 42.3514 -82.0133 92° East 517 595 35,000  Level Cleveland Center
Tue 05:22:15 PM 42.3428 -81.8389 94° East 522 601 35,000  Level Cleveland Center
Tue 05:23:15 PM 42.3344 -81.6447 93° East 516 594 35,000  Level Cleveland Center
Tue 05:24:15 PM 42.3256 -81.4481 93° East 516 594 35,000  Level Cleveland Center
Tue 05:25:15 PM 42.3144 -81.2514 94° East 522 601 35,000  Level Cleveland Center
Tue 05:26:15 PM 42.2861 -81.0547 101° East 522 601 35,000  Level Cleveland Center
Tue 05:27:15 PM 42.2578 -80.8442 100° East 527 606 35,000  Level Cleveland Center
Tue 05:28:15 PM 42.2308 -80.6506 101° East 522 601 35,000  Level Cleveland Center
Tue 05:29:15 PM 42.2039 -80.4569 101° East 527 606 35,000 -50 Level Cleveland Center
Tue 05:30:15 PM 42.1764 -80.2636 101° East 527 606 34,900  Descending Cleveland Center
Tue 05:31:15 PM 42.1486 -80.0764 101° East 522 601 35,000 50 Climbing Cleveland Center
Tue 05:32:15 PM 42.1225 -79.8972 101° East 502 578 35,000  Level Cleveland Center
Tue 05:33:15 PM 42.0922 -79.7075 102° East 510 587 35,000  Level Cleveland Center
Tue 05:34:15 PM 42.0700 -79.5511 101° East 499 574 35,000  Level Cleveland Center
Tue 05:35:15 PM 42.0411 -79.3669 102° East 499 574 35,000 50 Level Cleveland Center
Tue 05:36:15 PM 42.0142 -79.1858 101° East 499 574 35,100  Climbing Cleveland Center
Tue 05:37:15 PM 41.9847 -79.0050 102° East 499 574 35,000 -50 Descending Cleveland Center
Tue 05:38:15 PM 41.9569 -78.8242 102° East 499 574 35,000  Level Cleveland Center
Tue 05:39:15 PM 41.9269 -78.6433 103° East 499 574 35,000  Level Cleveland Center
Tue 05:40:16 PM 41.8986 -78.4603 102° East 499 574 35,000  Level Cleveland Center
Tue 05:41:15 PM 41.8681 -78.2828 103° East 499 574 35,000  Level Cleveland Center
Tue 05:42:15 PM 41.8394 -78.1025 102° East 499 574 35,000  Level Cleveland Center
Tue 05:44:10 PM 41.7825 -77.7586 102° East 494 568 35,000  Level New York Center
Tue 05:45:10 PM 41.7508 -77.5828 104° East 494 568 35,000  Level New York Center
Tue 05:46:10 PM 41.7217 -77.4019 102° East 494 568 35,000  Level New York Center
Tue 05:47:10 PM 41.6922 -77.2183 102° East 499 574 35,000  Level New York Center
Tue 05:48:10 PM 41.6472 -77.0475 109° East 499 574 35,000  Level New York Center
Tue 05:49:10 PM 41.6042 -76.8714 108° East 499 574 35,000  Level New York Center
Tue 05:50:10 PM 41.5531 -76.6894 111° Southeast 493 567 35,000  Level New York Center
Tue 05:51:10 PM 41.5072 -76.5219 110° East 483 556 35,000 -450 Level New York Center
Tue 05:52:10 PM 41.4631 -76.3547 109° East 478 550 34,100 -900 Descending New York Center
Tue 05:53:10 PM 41.4181 -76.2044 112° Southeast 484 557 33,200 -1,000 Descending New York Center
Tue 05:54:10 PM 41.3694 -76.0317 111° Southeast 493 567 32,100 -1,600 Descending New York Center
Tue 05:55:10 PM 41.3203 -75.8678 112° Southeast 487 560 30,000 -2,050 Descending New York Center
Tue 05:56:10 PM 41.2772 -75.7042 109° East 477 549 28,000 -2,000 Descending New York Center
Tue 05:57:10 PM 41.2233 -75.5458 114° Southeast 471 542 26,000 -1,800 Descending New York Center
Tue 05:58:10 PM 41.1697 -75.3767 113° Southeast 458 527 24,400 -1,500 Descending New York Center
Tue 05:59:10 PM 41.1225 -75.2469 116° Southeast 450 518 23,000 -700 Descending New York Center
Tue 06:00:10 PM 41.0739 -75.0978 113° Southeast 444 511 23,000  Level New York Center
Tue 06:01:10 PM 41.0172 -74.9372 115° Southeast 439 505 23,000  Level New York Center
Tue 06:02:10 PM 40.9886 -74.8064 106° East 426 490 23,000 -50 Level New York Center
Tue 06:03:10 PM 40.9711 -74.6378 98° East 431 496 22,900 -500 Descending New York Center
Tue 06:04:10 PM 40.9514 -74.4744 99° East 436 502 22,000 -1,400 Descending New York Center
Tue 06:05:10 PM 40.9353 -74.3253 98° East 436 502 20,100 -1,412 Descending New York Center
Tue 06:06:09 PM 40.9231 -74.1764 96° East 422 486 19,200 -655 Descending New York Center
Tue 06:07:09 PM 40.8767 -74.0478 115° Southeast 385 443 18,800 -1,143 Descending New York Center
Tue 06:08:15 PM 40.7833 -74.0000 159° South 333 383 16,800 -1,591 Descending New York TRACON
Tue 06:09:21 PM 40.6833 -73.9667 166° South 325 374 15,300 -1,810 Descending New York TRACON
Tue 06:10:21 PM 40.6000 -73.9333 163° South 327 376 13,000 -2,150 Descending New York TRACON
Tue 06:11:21 PM 40.5167 -73.9000 163° South 301 346 11,000 -2,150 Descending New York TRACON
Tue 06:12:21 PM 40.4500 -73.8667 159° South 290 334 8,700 -2,200 Descending New York TRACON
Tue 06:13:21 PM 40.3667 -73.8333 163° South 286 329 6,600 -1,850 Descending New York TRACON
Tue 06:14:21 PM 40.3333 -73.7333 114° Southeast 298 343 5,000 -1,300 Descending New York TRACON
Tue 06:15:21 PM 40.3667 -73.6333 66° East 285 328 4,000 -500 Descending New York TRACON
Tue 06:16:21 PM 40.4167 -73.5667 45° Northeast 264 304 4,000  Level New York TRACON
Tue 06:17:27 PM 40.4833 -73.5167 30° Northeast 255 293 4,000  Level New York TRACON
Tue 06:18:27 PM 40.5500 -73.5000 11° North 243 280 4,000 -211 Level New York TRACON
Tue 06:19:21 PM 40.6000 -73.5167 346° North 239 275 3,600 -526 Descending New York TRACON
Tue 06:20:21 PM 40.6500 -73.5500 333° Northwest 206 237 3,000 -400 Descending New York TRACON
Tue 06:21:21 PM 40.7000 -73.5833 333° Northwest 183 211 2,800 -476 Descending New York TRACON
Tue 06:22:27 PM 40.7500 -73.6167 333° Northwest 167 192 2,000 -400 Descending New York TRACON
Tue 06:23:21 PM 40.7500 -73.6667 270° West 176 203 2,000 -263 Level New York TRACON
Tue 06:24:21 PM 40.7000 -73.7000 207° Southwest 172 198 1,500 -650 Descending New York TRACON
Tue 06:25:21 PM 40.6667 -73.7333 217° Southwest 143 165 700 -800 Descending New York TRACON

Login

Don't have an account? Register now (free) for customized features, flight alerts, and more!